createdAt,value
2019-02-08T00:01:57.633Z,18.77
2019-02-08T00:04:27.870Z,16.90
2019-02-08T00:06:57.797Z,17.90
2019-02-08T00:09:28.085Z,20.33
2019-02-08T00:11:58.288Z,17.20
2019-02-08T00:14:29.069Z,17.57
2019-02-08T00:16:59.251Z,20.47
2019-02-08T00:19:29.158Z,18.50
2019-02-08T00:21:59.307Z,17.70
2019-02-08T00:24:29.644Z,18.30
2019-02-08T00:26:59.886Z,16.53
2019-02-08T00:29:30.154Z,17.90
2019-02-08T00:32:00.985Z,16.87
2019-02-08T00:34:31.282Z,17.10
2019-02-08T00:37:01.722Z,15.60
2019-02-08T00:39:31.912Z,16.00
2019-02-08T00:42:02.078Z,16.30
2019-02-08T00:44:32.361Z,16.63
2019-02-08T00:47:02.646Z,17.60
2019-02-08T00:49:32.845Z,16.17
2019-02-08T00:52:03.021Z,15.63
2019-02-08T00:54:33.932Z,14.20
2019-02-08T00:57:04.142Z,13.27
2019-02-08T00:59:34.395Z,13.63
2019-02-08T01:02:04.889Z,14.53
2019-02-08T01:04:35.024Z,13.60
2019-02-08T01:07:05.307Z,14.27
2019-02-08T01:09:36.240Z,14.80
2019-02-08T01:12:06.641Z,15.27
2019-02-08T01:14:37.060Z,15.97
2019-02-08T01:17:07.054Z,16.00
2019-02-08T01:19:37.556Z,18.57
2019-02-08T01:22:07.799Z,17.67
2019-02-08T01:24:38.513Z,17.90
2019-02-08T01:27:08.462Z,18.27
2019-02-08T01:29:39.205Z,18.93
2019-02-08T01:32:09.402Z,18.70
2019-02-08T01:34:39.338Z,18.10
2019-02-08T01:37:09.500Z,19.27
2019-02-08T01:39:39.640Z,17.13
2019-02-08T01:42:09.823Z,17.73
2019-02-08T01:44:40.007Z,18.07
2019-02-08T01:47:10.162Z,19.10
2019-02-08T01:49:40.550Z,18.47
2019-02-08T01:52:10.802Z,19.10
2019-02-08T01:54:40.708Z,20.30
2019-02-08T01:57:11.249Z,21.57
2019-02-08T01:59:41.384Z,20.67
2019-02-08T02:02:12.871Z,19.87
2019-02-08T02:04:43.096Z,21.03
2019-02-08T02:07:13.349Z,20.60
2019-02-08T02:09:43.592Z,20.03
2019-02-08T02:12:13.606Z,21.20
2019-02-08T02:14:44.237Z,21.30
2019-02-08T02:17:14.661Z,21.50
2019-02-08T02:19:44.926Z,22.50
2019-02-08T02:22:15.324Z,19.17
2019-02-08T02:24:45.288Z,18.57
2019-02-08T02:27:15.524Z,18.17
2019-02-08T02:29:45.720Z,20.00
2019-02-08T02:32:16.131Z,19.30
2019-02-08T02:34:46.465Z,17.87
2019-02-08T02:37:16.612Z,19.00
2019-02-08T02:39:47.356Z,16.33
2019-02-08T02:42:17.502Z,16.83
2019-02-08T02:44:47.953Z,17.70
2019-02-08T02:47:18.129Z,18.73
2019-02-08T02:49:48.299Z,15.80
2019-02-08T02:52:18.891Z,18.00
2019-02-08T02:54:49.688Z,17.87
2019-02-08T02:57:20.377Z,17.80
2019-02-08T02:59:50.639Z,17.13
2019-02-08T03:02:21.059Z,18.10
2019-02-08T03:04:51.516Z,17.70
2019-02-08T03:07:21.880Z,16.10
2019-02-08T03:09:52.399Z,17.10
2019-02-08T03:12:22.528Z,16.33
2019-02-08T03:14:52.703Z,16.93
2019-02-08T03:17:23.178Z,17.00
2019-02-08T03:19:53.653Z,16.00
2019-02-08T03:22:23.955Z,15.40
2019-02-08T03:24:53.904Z,16.77
2019-02-08T03:27:24.675Z,16.23
2019-02-08T03:29:54.918Z,15.00
2019-02-08T03:32:25.025Z,15.43
2019-02-08T03:34:55.494Z,14.77
2019-02-08T03:37:25.488Z,14.43
2019-02-08T03:39:55.915Z,13.90
2019-02-08T03:42:26.354Z,14.47
2019-02-08T03:44:56.783Z,14.17
2019-02-08T03:47:26.736Z,14.70
2019-02-08T03:49:56.720Z,15.70
2019-02-08T03:52:26.728Z,14.80
2019-02-08T03:54:56.664Z,14.20
2019-02-08T03:57:26.583Z,14.47
2019-02-08T03:59:57.062Z,14.00
2019-02-08T04:02:27.900Z,15.03
2019-02-08T04:04:58.131Z,13.70
2019-02-08T04:07:28.068Z,14.00
2019-02-08T04:09:58.313Z,13.50
2019-02-08T04:12:28.580Z,14.30
2019-02-08T04:14:58.995Z,13.47
2019-02-08T04:17:28.952Z,14.23
2019-02-08T04:19:59.024Z,13.00
2019-02-08T04:22:28.955Z,12.80
2019-02-08T04:24:59.147Z,13.97
2019-02-08T04:27:29.411Z,12.07
2019-02-08T04:29:59.365Z,11.90
2019-02-08T04:32:29.580Z,12.57
2019-02-08T04:34:59.753Z,11.60
2019-02-08T04:37:29.962Z,12.30
2019-02-08T04:40:00.386Z,10.87
2019-02-08T04:42:30.283Z,9.00
2019-02-08T04:45:00.527Z,10.00
2019-02-08T04:47:30.703Z,10.60
2019-02-08T04:50:00.909Z,9.93
2019-02-08T04:52:31.106Z,8.90
2019-02-08T04:55:01.032Z,8.50
2019-02-08T04:57:30.942Z,7.07
2019-02-08T05:00:01.498Z,8.03
2019-02-08T05:02:31.483Z,7.57
2019-02-08T05:05:01.640Z,8.30
2019-02-08T05:07:32.116Z,7.80
2019-02-08T05:10:02.158Z,7.20
2019-02-08T05:12:32.072Z,8.00
2019-02-08T05:15:02.510Z,8.40
2019-02-08T05:17:32.501Z,8.03
2019-02-08T05:20:03.042Z,8.33
2019-02-08T05:22:33.782Z,9.10
2019-02-08T05:25:04.111Z,8.20
2019-02-08T05:27:34.293Z,7.93
2019-02-08T05:30:07.843Z,6.80
2019-02-08T05:32:38.017Z,6.70
2019-02-08T05:35:08.758Z,8.80
2019-02-08T05:37:39.276Z,8.50
2019-02-08T05:40:10.979Z,7.73
2019-02-08T05:42:41.261Z,8.93
2019-02-08T05:45:13.901Z,8.13
2019-02-08T05:47:44.138Z,8.90
2019-02-08T05:50:18.075Z,9.10
2019-02-08T05:52:48.083Z,10.17
2019-02-08T05:55:20.892Z,9.10
2019-02-08T05:57:51.166Z,11.40
2019-02-08T06:00:37.850Z,8.57
2019-02-08T06:03:08.396Z,9.77
2019-02-08T06:05:39.364Z,9.33
2019-02-08T06:08:10.528Z,9.47
2019-02-08T06:10:40.842Z,8.70
2019-02-08T06:13:11.706Z,10.17
2019-02-08T06:15:42.351Z,9.97
2019-02-08T06:18:13.474Z,10.20
2019-02-08T06:20:44.188Z,9.50
2019-02-08T06:23:14.698Z,9.73
2019-02-08T06:25:45.101Z,9.87
2019-02-08T06:28:15.658Z,9.50
2019-02-08T06:30:45.875Z,9.63
2019-02-08T06:33:16.139Z,9.20
2019-02-08T06:35:46.544Z,10.67
2019-02-08T06:38:16.930Z,9.60
2019-02-08T06:40:48.435Z,8.77
2019-02-08T06:43:18.765Z,9.77
2019-02-08T06:45:50.291Z,8.40
2019-02-08T06:48:20.291Z,8.00
2019-02-08T06:50:50.418Z,7.73
2019-02-08T06:53:20.847Z,7.10
2019-02-08T06:55:53.773Z,8.50
2019-02-08T06:58:31.516Z,8.47
2019-02-08T07:01:15.616Z,6.63
2019-02-08T07:04:12.917Z,7.10
2019-02-08T07:07:16.956Z,7.60
2019-02-08T07:10:00.684Z,7.40
2019-02-08T07:12:52.513Z,7.37
2019-02-08T07:15:30.787Z,6.73
2019-02-08T07:18:06.960Z,6.57
2019-02-08T07:20:56.098Z,6.00
2019-02-08T07:23:39.549Z,5.83
2019-02-08T07:26:27.424Z,5.23
2019-02-08T07:29:16.496Z,5.63
2019-02-08T07:31:57.828Z,5.70
2019-02-08T07:34:52.895Z,6.37
2019-02-08T07:37:40.653Z,5.80
2019-02-08T07:40:31.389Z,6.23
2019-02-08T07:43:29.387Z,4.97
2019-02-08T07:46:10.243Z,5.73
2019-02-08T07:48:54.423Z,5.03
2019-02-08T07:51:55.748Z,5.40
2019-02-08T07:55:03.312Z,5.33
2019-02-08T07:57:49.889Z,5.43
2019-02-08T08:00:39.278Z,5.20
2019-02-08T08:03:26.766Z,5.20
2019-02-08T08:06:19.489Z,5.33
2019-02-08T08:09:06.951Z,6.27
2019-02-08T08:11:42.879Z,5.77
2019-02-08T08:14:22.681Z,5.60
2019-02-08T08:17:06.056Z,6.17
2019-02-08T08:19:46.738Z,6.23
2019-02-08T08:22:27.846Z,5.93
2019-02-08T08:25:23.179Z,5.87
2019-02-08T08:28:15.335Z,6.00
2019-02-08T08:30:55.969Z,5.70
2019-02-08T08:33:55.951Z,5.20
2019-02-08T08:37:16.096Z,4.60
2019-02-08T08:40:44.087Z,4.17
2019-02-08T08:43:55.424Z,4.47
2019-02-08T08:47:19.583Z,4.77
2019-02-08T08:50:55.247Z,4.63
2019-02-08T08:54:05.891Z,3.97
2019-02-08T08:57:40.265Z,5.00
2019-02-08T09:01:00.732Z,4.73
2019-02-08T09:04:26.928Z,4.70
2019-02-08T09:07:41.530Z,3.60
2019-02-08T09:10:51.312Z,4.30
2019-02-08T09:14:15.465Z,4.10
2019-02-08T09:17:42.946Z,4.70
2019-02-08T09:21:02.990Z,4.63
2019-02-08T09:24:47.200Z,3.57
2019-02-08T09:28:08.951Z,3.33
2019-02-08T09:31:09.354Z,3.80
2019-02-08T09:34:33.328Z,3.70
2019-02-08T09:37:44.990Z,3.13
2019-02-08T09:40:59.240Z,3.67
2019-02-08T09:44:34.453Z,3.93
2019-02-08T09:48:07.513Z,3.23
2019-02-08T09:51:30.498Z,3.23
2019-02-08T09:54:52.230Z,3.00
2019-02-08T09:57:50.173Z,2.90
2019-02-08T10:01:21.221Z,3.07
2019-02-08T10:04:36.881Z,3.97
2019-02-08T10:08:07.866Z,3.53
2019-02-08T10:11:48.745Z,3.83
2019-02-08T10:15:18.725Z,3.10
2019-02-08T10:18:59.823Z,3.90
2019-02-08T10:22:41.286Z,3.70
2019-02-08T10:26:15.064Z,4.63
2019-02-08T10:29:41.752Z,4.43
2019-02-08T10:33:01.519Z,4.10
2019-02-08T10:36:25.047Z,4.40
2019-02-08T10:39:55.200Z,4.53
2019-02-08T10:43:28.518Z,5.00
2019-02-08T10:46:37.844Z,5.87
2019-02-08T10:49:56.657Z,3.93
2019-02-08T10:53:27.555Z,4.67
2019-02-08T10:56:44.435Z,4.60
2019-02-08T10:59:52.568Z,3.80
2019-02-08T11:03:27.924Z,5.10
2019-02-08T11:06:49.537Z,3.33
2019-02-08T11:10:22.092Z,4.10
2019-02-08T11:13:49.862Z,4.90
2019-02-08T11:17:15.687Z,3.77
2019-02-08T11:19:43.967Z,4.47
2019-02-08T11:22:14.394Z,4.67
2019-02-08T11:24:44.561Z,3.57
2019-02-08T11:27:15.094Z,4.37
2019-02-08T11:29:45.257Z,4.50
2019-02-08T11:32:15.309Z,4.83
2019-02-08T11:34:45.458Z,4.37
2019-02-08T11:37:15.768Z,4.30
2019-02-08T11:39:45.832Z,5.30
2019-02-08T11:42:15.984Z,4.17
2019-02-08T11:44:46.223Z,3.93
2019-02-08T11:47:16.235Z,4.30
2019-02-08T11:49:46.181Z,4.53
2019-02-08T11:52:16.614Z,4.20
2019-02-08T11:54:46.771Z,4.43
2019-02-08T11:57:17.015Z,4.07
2019-02-08T11:59:46.930Z,4.43
2019-02-08T12:02:18.438Z,4.40
2019-02-08T12:04:48.415Z,4.10
2019-02-08T12:07:18.428Z,4.73
2019-02-08T12:09:48.882Z,3.67
2019-02-08T12:12:19.302Z,3.83
2019-02-08T12:14:49.325Z,4.03
2019-02-08T12:17:19.620Z,4.40
2019-02-08T12:19:50.278Z,4.20
2019-02-08T12:22:20.454Z,3.93
2019-02-08T12:24:52.500Z,3.70
2019-02-08T12:27:22.824Z,2.90
2019-02-08T12:29:53.056Z,3.97
2019-02-08T12:32:23.211Z,3.70
2019-02-08T12:34:53.371Z,3.63
2019-02-08T12:37:23.605Z,3.90
2019-02-08T12:39:53.524Z,3.70
2019-02-08T12:42:23.530Z,4.10
2019-02-08T12:44:54.169Z,4.13
2019-02-08T12:47:24.640Z,3.40
2019-02-08T12:49:54.562Z,5.13
2019-02-08T12:52:25.222Z,4.03
2019-02-08T12:54:55.632Z,3.90
2019-02-08T12:57:26.028Z,4.10
2019-02-08T12:59:56.417Z,5.20
2019-02-08T13:02:26.583Z,4.20
2019-02-08T13:04:56.941Z,4.10
2019-02-08T13:07:54.415Z,3.50
2019-02-08T13:10:25.309Z,3.53
2019-02-08T13:12:55.272Z,3.03
2019-02-08T13:15:25.682Z,3.33
2019-02-08T13:17:55.504Z,3.47
2019-02-08T13:20:25.471Z,3.57
2019-02-08T13:22:55.691Z,3.57
2019-02-08T13:25:25.851Z,4.10
2019-02-08T13:27:55.700Z,3.93
2019-02-08T13:30:28.510Z,4.00
2019-02-08T13:32:58.525Z,4.80
2019-02-08T13:35:28.693Z,4.93
2019-02-08T13:37:58.600Z,4.27
2019-02-08T13:40:28.532Z,4.20
2019-02-08T13:42:58.422Z,3.50
2019-02-08T13:45:28.739Z,4.10
2019-02-08T13:47:59.043Z,3.53
2019-02-08T13:50:29.253Z,4.07
2019-02-08T13:52:59.495Z,4.07
2019-02-08T13:55:29.802Z,4.20
2019-02-08T13:57:59.803Z,4.30
2019-02-08T14:00:35.682Z,3.93
2019-02-08T14:03:06.612Z,3.27
2019-02-08T14:05:36.647Z,3.27
2019-02-08T14:08:07.474Z,3.40
2019-02-08T14:10:37.525Z,3.20
2019-02-08T14:13:07.521Z,3.47
2019-02-08T14:15:37.766Z,3.07
2019-02-08T14:18:07.795Z,4.00
2019-02-08T14:20:37.732Z,3.33
2019-02-08T14:23:07.553Z,3.00
2019-02-08T14:25:37.441Z,3.77
2019-02-08T14:28:07.271Z,3.57
2019-02-08T14:30:39.993Z,3.00
2019-02-08T14:33:10.005Z,3.27
2019-02-08T14:35:40.148Z,2.63
2019-02-08T14:38:17.859Z,3.13
2019-02-08T14:40:48.136Z,2.43
2019-02-08T14:43:17.984Z,3.50
2019-02-08T14:45:48.087Z,3.70
2019-02-08T14:48:18.180Z,2.73
2019-02-08T14:50:48.098Z,2.30
2019-02-08T14:53:17.959Z,3.00
2019-02-08T14:55:47.879Z,2.40
2019-02-08T14:58:17.816Z,2.83
2019-02-08T15:00:47.873Z,2.50
2019-02-08T15:03:17.746Z,2.63
2019-02-08T15:05:47.598Z,3.23
2019-02-08T15:08:17.453Z,2.80
2019-02-08T15:10:49.469Z,2.50
2019-02-08T15:13:19.333Z,3.63
2019-02-08T15:15:49.184Z,2.30
2019-02-08T15:18:19.308Z,2.90
2019-02-08T15:20:49.136Z,2.57
2019-02-08T15:23:19.219Z,2.67
2019-02-08T15:25:49.084Z,2.60
2019-02-08T15:28:18.884Z,2.93
2019-02-08T15:30:48.773Z,2.60
2019-02-08T15:33:18.632Z,2.27
2019-02-08T15:35:48.500Z,2.57
2019-02-08T15:38:18.335Z,2.97
2019-02-08T15:40:51.797Z,2.70
2019-02-08T15:43:23.484Z,2.60
2019-02-08T15:46:00.215Z,2.77
2019-02-08T15:48:30.170Z,2.47
2019-02-08T15:51:00.015Z,2.27
2019-02-08T15:53:29.860Z,2.73
2019-02-08T15:56:08.883Z,2.00
2019-02-08T15:58:39.040Z,2.80
2019-02-08T16:01:11.376Z,2.77
2019-02-08T16:03:41.528Z,2.80
2019-02-08T16:06:11.725Z,2.10
2019-02-08T16:08:41.630Z,3.37
2019-02-08T16:11:11.897Z,2.77
2019-02-08T16:13:41.729Z,2.50
2019-02-08T16:16:12.363Z,2.33
2019-02-08T16:18:42.618Z,3.03
2019-02-08T16:21:12.597Z,2.47
2019-02-08T16:23:42.432Z,2.45
2019-02-08T16:26:12.352Z,2.10
2019-02-08T16:28:42.485Z,3.13
2019-02-08T16:31:12.421Z,2.30
2019-02-08T16:33:42.224Z,2.40
2019-02-08T16:36:12.222Z,2.20
2019-02-08T16:38:42.094Z,2.07
2019-02-08T16:41:12.416Z,2.20
2019-02-08T16:43:42.586Z,1.90
2019-02-08T16:46:12.590Z,2.13
2019-02-08T16:48:42.473Z,2.63
2019-02-08T16:51:12.438Z,2.40
2019-02-08T16:53:42.793Z,2.93
2019-02-08T16:56:12.976Z,2.80
2019-02-08T16:58:42.824Z,2.30
2019-02-08T17:01:12.797Z,3.67
2019-02-08T17:03:42.684Z,2.90
2019-02-08T17:06:12.689Z,2.93
2019-02-08T17:08:42.586Z,3.30
2019-02-08T17:11:12.413Z,2.97
2019-02-08T17:13:42.234Z,3.40
2019-02-08T17:16:12.338Z,3.27
2019-02-08T17:18:42.740Z,2.90
2019-02-08T17:21:13.359Z,3.17
2019-02-08T17:23:43.725Z,2.90
2019-02-08T17:26:13.918Z,3.10
2019-02-08T17:28:44.031Z,2.97
2019-02-08T17:31:14.156Z,2.83
2019-02-08T17:33:44.743Z,2.90
2019-02-08T17:36:14.846Z,3.00
2019-02-08T17:38:44.687Z,3.50
2019-02-08T17:41:14.666Z,3.73
2019-02-08T17:43:44.624Z,3.47
2019-02-08T17:46:14.504Z,3.17
2019-02-08T17:48:44.384Z,3.30
2019-02-08T17:51:14.245Z,2.97
2019-02-08T17:53:44.328Z,3.83
2019-02-08T17:56:14.628Z,2.60
2019-02-08T17:58:44.576Z,3.17
2019-02-08T18:01:14.508Z,3.13
2019-02-08T18:03:44.413Z,3.83
2019-02-08T18:06:14.280Z,3.17
2019-02-08T18:08:44.388Z,4.27
2019-02-08T18:11:14.255Z,2.87
2019-02-08T18:13:44.403Z,3.50
2019-02-08T18:16:14.585Z,2.60
2019-02-08T18:18:44.474Z,3.30
2019-02-08T18:21:14.354Z,2.97
2019-02-08T18:23:44.413Z,2.53
2019-02-08T18:26:14.557Z,3.10
2019-02-08T18:28:44.410Z,2.40
2019-02-08T18:31:14.296Z,2.80
2019-02-08T18:33:44.149Z,3.40
2019-02-08T18:36:13.995Z,2.77
2019-02-08T18:38:43.863Z,5.30
2019-02-08T18:41:13.931Z,2.47
2019-02-08T18:43:43.988Z,2.50
2019-02-08T18:46:13.917Z,2.87
2019-02-08T18:48:43.785Z,3.20
2019-02-08T18:51:13.638Z,3.27
2019-02-08T18:53:43.724Z,2.50
2019-02-08T18:56:13.549Z,2.77
2019-02-08T18:58:43.464Z,2.10
2019-02-08T19:01:13.752Z,2.50
2019-02-08T19:03:44.028Z,2.07
2019-02-08T19:06:13.886Z,2.63
2019-02-08T19:08:43.760Z,2.27
2019-02-08T19:11:14.097Z,3.60
2019-02-08T19:13:44.200Z,2.50
2019-02-08T19:16:14.101Z,2.53
2019-02-08T19:18:43.965Z,2.90
2019-02-08T19:21:14.317Z,2.03
2019-02-08T19:23:44.461Z,2.30
2019-02-08T19:26:14.818Z,2.37
2019-02-08T19:28:44.942Z,2.10
2019-02-08T19:31:15.236Z,2.50
2019-02-08T19:33:45.137Z,2.60
2019-02-08T19:36:15.575Z,1.90
2019-02-08T19:38:47.415Z,2.27
2019-02-08T19:41:17.567Z,2.30
2019-02-08T19:43:47.454Z,2.33
2019-02-08T19:46:17.306Z,2.27
2019-02-08T19:48:47.631Z,2.53
2019-02-08T19:51:17.495Z,2.50
2019-02-08T19:53:47.377Z,2.43
2019-02-08T19:56:17.245Z,2.63
2019-02-08T19:58:47.082Z,2.20
2019-02-08T20:01:17.005Z,2.70
2019-02-08T20:03:46.954Z,2.23
2019-02-08T20:06:16.901Z,2.03
2019-02-08T20:08:46.782Z,2.40
2019-02-08T20:11:16.913Z,2.77
2019-02-08T20:13:47.290Z,2.00
2019-02-08T20:16:17.204Z,2.10
2019-02-08T20:18:47.039Z,2.90
2019-02-08T20:21:17.122Z,2.60
2019-02-08T20:23:47.451Z,2.97
2019-02-08T20:26:17.323Z,2.43
2019-02-08T20:28:47.180Z,2.80
2019-02-08T20:31:17.030Z,2.13
2019-02-08T20:33:46.891Z,2.50
2019-02-08T20:36:16.857Z,3.03
2019-02-08T20:38:46.973Z,2.27
2019-02-08T20:41:16.901Z,2.60
2019-02-08T20:43:46.737Z,2.90
2019-02-08T20:46:16.653Z,2.67
2019-02-08T20:48:46.583Z,2.60
2019-02-08T20:51:16.610Z,3.40
2019-02-08T20:53:46.581Z,3.10
2019-02-08T20:56:16.444Z,3.20
2019-02-08T20:58:50.414Z,2.97
2019-02-08T21:01:17.951Z,2.93
2019-02-08T21:03:48.191Z,2.80
2019-02-08T21:06:18.125Z,3.10
2019-02-08T21:08:48.211Z,2.97
2019-02-08T21:11:18.032Z,2.40
2019-02-08T21:13:48.142Z,2.03
2019-02-08T21:16:18.208Z,2.70
2019-02-08T21:18:48.275Z,2.63
2019-02-08T21:21:18.195Z,2.20
2019-02-08T21:23:48.293Z,2.93
2019-02-08T21:26:18.161Z,1.57
2019-02-08T21:28:47.988Z,2.13
2019-02-08T21:31:17.867Z,2.17
2019-02-08T21:33:47.729Z,2.00
2019-02-08T21:36:17.601Z,2.30
2019-02-08T21:38:47.656Z,2.23
2019-02-08T21:41:17.506Z,2.47
2019-02-08T21:43:47.338Z,2.83
2019-02-08T21:46:17.409Z,2.53
2019-02-08T21:48:47.481Z,2.20
2019-02-08T21:51:17.359Z,2.77
2019-02-08T21:53:47.172Z,2.60
2019-02-08T21:56:17.269Z,2.37
2019-02-08T21:58:50.355Z,2.00
2019-02-08T22:01:20.532Z,2.33
2019-02-08T22:03:50.599Z,2.70
2019-02-08T22:06:20.526Z,3.10
2019-02-08T22:08:50.871Z,2.60
2019-02-08T22:11:20.950Z,2.70
2019-02-08T22:13:50.782Z,2.60
2019-02-08T22:16:20.731Z,2.57
2019-02-08T22:18:50.600Z,2.70
2019-02-08T22:21:20.459Z,2.90
2019-02-08T22:23:50.531Z,2.60
2019-02-08T22:26:20.488Z,3.23
2019-02-08T22:28:50.381Z,5.03
2019-02-08T22:31:20.251Z,3.57
2019-02-08T22:33:50.086Z,3.53
2019-02-08T22:36:20.244Z,3.57
2019-02-08T22:38:50.120Z,4.37
2019-02-08T22:41:19.948Z,4.00
2019-02-08T22:43:49.812Z,3.97
2019-02-08T22:46:19.675Z,4.77
2019-02-08T22:48:49.484Z,5.00
2019-02-08T22:51:19.562Z,5.13
2019-02-08T22:53:49.438Z,4.83
2019-02-08T22:56:19.560Z,5.70
2019-02-08T22:58:49.388Z,5.70
2019-02-08T23:01:29.523Z,5.77
2019-02-08T23:04:01.673Z,5.50
2019-02-08T23:06:32.040Z,5.93
2019-02-08T23:09:01.932Z,5.50
2019-02-08T23:11:31.862Z,5.30
2019-02-08T23:14:01.763Z,6.10
2019-02-08T23:16:31.616Z,5.27
2019-02-08T23:19:01.443Z,5.37
2019-02-08T23:21:31.265Z,5.00
2019-02-08T23:24:01.207Z,5.47
2019-02-08T23:26:31.071Z,6.30
2019-02-08T23:29:01.152Z,5.17
2019-02-08T23:31:31.046Z,5.93
2019-02-08T23:34:01.167Z,5.47
2019-02-08T23:36:31.132Z,5.47
2019-02-08T23:39:01.010Z,5.27
2019-02-08T23:41:30.861Z,5.50
2019-02-08T23:44:00.722Z,5.43
2019-02-08T23:46:30.547Z,5.60
2019-02-08T23:49:00.369Z,5.87
2019-02-08T23:51:30.259Z,5.17
2019-02-08T23:54:00.140Z,5.67
2019-02-08T23:56:30.496Z,5.70
2019-02-08T23:59:00.615Z,4.73
